sensor_id;sensor_type;location;lat;lon;timestamp;P1;durP1;ratioP1;P2;durP2;ratioP2
22449;SDS011;11392;57.390;-2.468;2023-02-27T00:00:05;8.57;;;4.70;;
22449;SDS011;11392;57.390;-2.468;2023-02-27T00:02:41;7.05;;;4.25;;
22449;SDS011;11392;57.390;-2.468;2023-02-27T00:05:09;8.27;;;3.90;;
22449;SDS011;11392;57.390;-2.468;2023-02-27T00:07:37;9.43;;;5.38;;
22449;SDS011;11392;57.390;-2.468;2023-02-27T00:10:04;8.30;;;4.38;;
22449;SDS011;11392;57.390;-2.468;2023-02-27T00:12:32;5.32;;;3.25;;
22449;SDS011;11392;57.390;-2.468;2023-02-27T00:17:37;6.07;;;2.63;;
22449;SDS011;11392;57.390;-2.468;2023-02-27T00:20:05;4.80;;;2.95;;
22449;SDS011;11392;57.390;-2.468;2023-02-27T00:22:36;4.90;;;2.03;;
22449;SDS011;11392;57.390;-2.468;2023-02-27T00:25:04;4.35;;;1.42;;
22449;SDS011;11392;57.390;-2.468;2023-02-27T00:27:33;5.00;;;1.38;;
22449;SDS011;11392;57.390;-2.468;2023-02-27T00:30:00;3.75;;;1.50;;
22449;SDS011;11392;57.390;-2.468;2023-02-27T00:32:29;8.55;;;5.22;;
22449;SDS011;11392;57.390;-2.468;2023-02-27T00:34:56;5.45;;;1.75;;
22449;SDS011;11392;57.390;-2.468;2023-02-27T00:37:23;5.75;;;3.35;;
22449;SDS011;11392;57.390;-2.468;2023-02-27T00:39:50;8.35;;;4.03;;
22449;SDS011;11392;57.390;-2.468;2023-02-27T00:42:17;6.30;;;4.03;;
22449;SDS011;11392;57.390;-2.468;2023-02-27T00:44:44;5.65;;;3.60;;
22449;SDS011;11392;57.390;-2.468;2023-02-27T00:47:11;7.38;;;2.65;;
22449;SDS011;11392;57.390;-2.468;2023-02-27T00:49:38;4.15;;;2.00;;
22449;SDS011;11392;57.390;-2.468;2023-02-27T00:52:05;4.72;;;1.17;;
22449;SDS011;11392;57.390;-2.468;2023-02-27T00:54:32;4.60;;;1.63;;
22449;SDS011;11392;57.390;-2.468;2023-02-27T00:56:59;6.53;;;3.55;;
22449;SDS011;11392;57.390;-2.468;2023-02-27T00:59:26;9.10;;;3.50;;
22449;SDS011;11392;57.390;-2.468;2023-02-27T01:01:53;5.05;;;2.67;;
22449;SDS011;11392;57.390;-2.468;2023-02-27T01:04:20;8.57;;;3.20;;
22449;SDS011;11392;57.390;-2.468;2023-02-27T01:06:47;8.13;;;3.05;;
22449;SDS011;11392;57.390;-2.468;2023-02-27T01:09:14;5.13;;;2.78;;
22449;SDS011;11392;57.390;-2.468;2023-02-27T01:11:41;6.93;;;2.63;;
22449;SDS011;11392;57.390;-2.468;2023-02-27T01:14:08;4.80;;;2.55;;
22449;SDS011;11392;57.390;-2.468;2023-02-27T01:16:35;7.18;;;2.67;;
22449;SDS011;11392;57.390;-2.468;2023-02-27T01:19:03;4.85;;;2.58;;
22449;SDS011;11392;57.390;-2.468;2023-02-27T01:21:30;4.32;;;2.50;;
22449;SDS011;11392;57.390;-2.468;2023-02-27T01:23:57;6.00;;;3.15;;
22449;SDS011;11392;57.390;-2.468;2023-02-27T01:26:24;6.55;;;2.97;;
22449;SDS011;11392;57.390;-2.468;2023-02-27T01:28:51;5.15;;;2.35;;
22449;SDS011;11392;57.390;-2.468;2023-02-27T01:31:18;7.68;;;2.60;;
22449;SDS011;11392;57.390;-2.468;2023-02-27T01:33:45;3.30;;;2.17;;
22449;SDS011;11392;57.390;-2.468;2023-02-27T01:36:14;5.05;;;2.28;;
22449;SDS011;11392;57.390;-2.468;2023-02-27T01:38:41;3.80;;;2.00;;
22449;SDS011;11392;57.390;-2.468;2023-02-27T01:41:08;4.30;;;1.80;;
22449;SDS011;11392;57.390;-2.468;2023-02-27T01:43:51;3.78;;;1.90;;
22449;SDS011;11392;57.390;-2.468;2023-02-27T01:46:30;5.72;;;2.35;;
22449;SDS011;11392;57.390;-2.468;2023-02-27T01:49:08;5.25;;;2.63;;
22449;SDS011;11392;57.390;-2.468;2023-02-27T01:51:41;7.50;;;3.10;;
22449;SDS011;11392;57.390;-2.468;2023-02-27T01:54:15;5.75;;;2.53;;
22449;SDS011;11392;57.390;-2.468;2023-02-27T01:56:45;2.95;;;2.08;;
22449;SDS011;11392;57.390;-2.468;2023-02-27T01:59:12;4.53;;;1.90;;
22449;SDS011;11392;57.390;-2.468;2023-02-27T02:01:41;3.88;;;1.75;;
22449;SDS011;11392;57.390;-2.468;2023-02-27T02:06:49;5.78;;;2.45;;
22449;SDS011;11392;57.390;-2.468;2023-02-27T02:09:25;5.35;;;2.55;;
22449;SDS011;11392;57.390;-2.468;2023-02-27T02:11:54;5.15;;;2.35;;
22449;SDS011;11392;57.390;-2.468;2023-02-27T02:14:22;5.60;;;3.50;;
22449;SDS011;11392;57.390;-2.468;2023-02-27T02:17:09;4.95;;;3.00;;
22449;SDS011;11392;57.390;-2.468;2023-02-27T02:31:21;4.55;;;1.77;;
22449;SDS011;11392;57.390;-2.468;2023-02-27T02:34:10;3.17;;;1.27;;
22449;SDS011;11392;57.390;-2.468;2023-02-27T02:42:39;4.70;;;1.70;;
22449;SDS011;11392;57.390;-2.468;2023-02-27T02:54:00;2.80;;;1.58;;
22449;SDS011;11392;57.390;-2.468;2023-02-27T02:56:35;4.28;;;1.60;;
22449;SDS011;11392;57.390;-2.468;2023-02-27T02:59:14;3.17;;;1.77;;
22449;SDS011;11392;57.390;-2.468;2023-02-27T03:02:35;4.35;;;2.00;;
22449;SDS011;11392;57.390;-2.468;2023-02-27T03:05:17;3.95;;;2.20;;
22449;SDS011;11392;57.390;-2.468;2023-02-27T03:10:26;1.30;;;1.20;;
22449;SDS011;11392;57.390;-2.468;2023-02-27T03:13:09;4.10;;;1.27;;
22449;SDS011;11392;57.390;-2.468;2023-02-27T03:15:46;5.60;;;1.60;;
22449;SDS011;11392;57.390;-2.468;2023-02-27T03:18:24;1.90;;;1.15;;
22449;SDS011;11392;57.390;-2.468;2023-02-27T03:20:57;4.10;;;1.27;;
22449;SDS011;11392;57.390;-2.468;2023-02-27T03:23:31;5.35;;;1.48;;
22449;SDS011;11392;57.390;-2.468;2023-02-27T03:26:03;2.42;;;1.42;;
22449;SDS011;11392;57.390;-2.468;2023-02-27T03:28:33;4.55;;;1.50;;
22449;SDS011;11392;57.390;-2.468;2023-02-27T03:34:14;3.17;;;1.48;;
22449;SDS011;11392;57.390;-2.468;2023-02-27T03:36:50;2.45;;;1.20;;
22449;SDS011;11392;57.390;-2.468;2023-02-27T03:48:07;8.65;;;1.52;;
22449;SDS011;11392;57.390;-2.468;2023-02-27T03:50:35;5.25;;;1.45;;
22449;SDS011;11392;57.390;-2.468;2023-02-27T03:53:07;7.10;;;1.60;;
22449;SDS011;11392;57.390;-2.468;2023-02-27T03:55:41;2.40;;;1.08;;
22449;SDS011;11392;57.390;-2.468;2023-02-27T03:58:11;3.72;;;1.40;;
22449;SDS011;11392;57.390;-2.468;2023-02-27T04:00:39;4.75;;;1.45;;
22449;SDS011;11392;57.390;-2.468;2023-02-27T04:03:07;3.75;;;1.33;;
22449;SDS011;11392;57.390;-2.468;2023-02-27T04:05:34;5.57;;;1.95;;
22449;SDS011;11392;57.390;-2.468;2023-02-27T04:21:21;3.63;;;1.35;;
22449;SDS011;11392;57.390;-2.468;2023-02-27T04:27:02;4.32;;;1.20;;
22449;SDS011;11392;57.390;-2.468;2023-02-27T04:32:42;1.88;;;1.20;;
22449;SDS011;11392;57.390;-2.468;2023-02-27T04:35:19;4.82;;;1.75;;
22449;SDS011;11392;57.390;-2.468;2023-02-27T04:41:04;2.13;;;1.00;;
22449;SDS011;11392;57.390;-2.468;2023-02-27T04:43:41;3.10;;;1.27;;
22449;SDS011;11392;57.390;-2.468;2023-02-27T04:46:11;4.80;;;1.33;;
22449;SDS011;11392;57.390;-2.468;2023-02-27T04:51:20;5.35;;;2.38;;
22449;SDS011;11392;57.390;-2.468;2023-02-27T04:56:52;5.45;;;1.20;;
22449;SDS011;11392;57.390;-2.468;2023-02-27T04:59:26;4.35;;;1.52;;
22449;SDS011;11392;57.390;-2.468;2023-02-27T05:02:00;6.03;;;1.83;;
22449;SDS011;11392;57.390;-2.468;2023-02-27T05:04:34;5.93;;;1.50;;
22449;SDS011;11392;57.390;-2.468;2023-02-27T05:07:06;4.47;;;1.50;;
22449;SDS011;11392;57.390;-2.468;2023-02-27T05:09:44;5.70;;;1.75;;
22449;SDS011;11392;57.390;-2.468;2023-02-27T05:12:23;6.68;;;1.77;;
22449;SDS011;11392;57.390;-2.468;2023-02-27T05:15:05;5.00;;;1.40;;
22449;SDS011;11392;57.390;-2.468;2023-02-27T05:17:43;4.07;;;1.27;;
22449;SDS011;11392;57.390;-2.468;2023-02-27T05:20:30;4.28;;;2.00;;
22449;SDS011;11392;57.390;-2.468;2023-02-27T05:23:08;6.80;;;1.10;;
22449;SDS011;11392;57.390;-2.468;2023-02-27T05:26:44;4.40;;;1.30;;
22449;SDS011;11392;57.390;-2.468;2023-02-27T05:28:52;5.70;;;1.50;;
22449;SDS011;11392;57.390;-2.468;2023-02-27T05:31:38;5.63;;;1.13;;
22449;SDS011;11392;57.390;-2.468;2023-02-27T05:36:45;3.00;;;1.20;;
22449;SDS011;11392;57.390;-2.468;2023-02-27T05:39:15;5.28;;;1.27;;
22449;SDS011;11392;57.390;-2.468;2023-02-27T05:41:47;8.05;;;2.13;;
22449;SDS011;11392;57.390;-2.468;2023-02-27T05:44:20;3.13;;;1.50;;
22449;SDS011;11392;57.390;-2.468;2023-02-27T05:47:10;3.08;;;1.65;;
22449;SDS011;11392;57.390;-2.468;2023-02-27T05:52:15;1.95;;;1.17;;
22449;SDS011;11392;57.390;-2.468;2023-02-27T05:54:47;3.65;;;1.50;;
22449;SDS011;11392;57.390;-2.468;2023-02-27T05:57:41;2.63;;;1.08;;
22449;SDS011;11392;57.390;-2.468;2023-02-27T06:00:23;4.38;;;1.40;;
22449;SDS011;11392;57.390;-2.468;2023-02-27T06:02:57;3.50;;;1.27;;
22449;SDS011;11392;57.390;-2.468;2023-02-27T06:05:24;2.55;;;1.13;;
22449;SDS011;11392;57.390;-2.468;2023-02-27T06:07:52;3.67;;;1.33;;
22449;SDS011;11392;57.390;-2.468;2023-02-27T06:10:19;6.05;;;1.13;;
22449;SDS011;11392;57.390;-2.468;2023-02-27T06:12:47;5.18;;;1.60;;
22449;SDS011;11392;57.390;-2.468;2023-02-27T06:15:14;6.20;;;1.60;;
22449;SDS011;11392;57.390;-2.468;2023-02-27T06:17:42;4.10;;;1.30;;
22449;SDS011;11392;57.390;-2.468;2023-02-27T06:20:09;4.25;;;1.20;;
22449;SDS011;11392;57.390;-2.468;2023-02-27T06:22:37;3.78;;;1.33;;
22449;SDS011;11392;57.390;-2.468;2023-02-27T06:25:04;4.53;;;1.30;;
22449;SDS011;11392;57.390;-2.468;2023-02-27T06:27:31;3.28;;;1.20;;
22449;SDS011;11392;57.390;-2.468;2023-02-27T06:29:58;2.60;;;1.58;;
22449;SDS011;11392;57.390;-2.468;2023-02-27T06:32:26;4.47;;;1.33;;
22449;SDS011;11392;57.390;-2.468;2023-02-27T06:34:53;2.50;;;1.20;;
22449;SDS011;11392;57.390;-2.468;2023-02-27T06:37:20;8.95;;;1.60;;
22449;SDS011;11392;57.390;-2.468;2023-02-27T06:39:48;2.65;;;1.95;;
22449;SDS011;11392;57.390;-2.468;2023-02-27T06:42:15;4.68;;;1.20;;
22449;SDS011;11392;57.390;-2.468;2023-02-27T06:44:43;3.42;;;1.13;;
22449;SDS011;11392;57.390;-2.468;2023-02-27T06:47:10;5.35;;;1.30;;
22449;SDS011;11392;57.390;-2.468;2023-02-27T06:49:37;2.58;;;1.25;;
22449;SDS011;11392;57.390;-2.468;2023-02-27T06:52:04;3.17;;;1.20;;
22449;SDS011;11392;57.390;-2.468;2023-02-27T06:54:31;2.55;;;1.40;;
22449;SDS011;11392;57.390;-2.468;2023-02-27T06:56:59;2.47;;;1.10;;
22449;SDS011;11392;57.390;-2.468;2023-02-27T06:59:26;4.63;;;1.50;;
22449;SDS011;11392;57.390;-2.468;2023-02-27T07:01:53;5.03;;;1.55;;
22449;SDS011;11392;57.390;-2.468;2023-02-27T07:04:20;2.65;;;1.23;;
22449;SDS011;11392;57.390;-2.468;2023-02-27T07:06:47;5.22;;;1.25;;
22449;SDS011;11392;57.390;-2.468;2023-02-27T07:09:38;2.70;;;1.42;;
22449;SDS011;11392;57.390;-2.468;2023-02-27T07:12:05;4.68;;;1.60;;
22449;SDS011;11392;57.390;-2.468;2023-02-27T07:14:33;3.10;;;1.33;;
22449;SDS011;11392;57.390;-2.468;2023-02-27T07:17:00;3.08;;;1.60;;
22449;SDS011;11392;57.390;-2.468;2023-02-27T07:19:30;4.28;;;1.65;;
22449;SDS011;11392;57.390;-2.468;2023-02-27T07:21:58;4.38;;;1.58;;
22449;SDS011;11392;57.390;-2.468;2023-02-27T07:24:25;2.85;;;1.38;;
22449;SDS011;11392;57.390;-2.468;2023-02-27T07:26:53;3.95;;;1.40;;
22449;SDS011;11392;57.390;-2.468;2023-02-27T07:29:20;3.70;;;1.48;;
22449;SDS011;11392;57.390;-2.468;2023-02-27T07:31:47;2.17;;;1.45;;
22449;SDS011;11392;57.390;-2.468;2023-02-27T07:34:14;3.65;;;1.63;;
22449;SDS011;11392;57.390;-2.468;2023-02-27T07:36:41;4.65;;;1.73;;
22449;SDS011;11392;57.390;-2.468;2023-02-27T07:39:08;4.40;;;1.50;;
22449;SDS011;11392;57.390;-2.468;2023-02-27T07:41:37;2.92;;;1.45;;
22449;SDS011;11392;57.390;-2.468;2023-02-27T07:44:04;2.97;;;1.48;;
22449;SDS011;11392;57.390;-2.468;2023-02-27T07:46:34;2.35;;;1.30;;
22449;SDS011;11392;57.390;-2.468;2023-02-27T07:49:02;4.63;;;1.40;;
22449;SDS011;11392;57.390;-2.468;2023-02-27T07:51:29;2.13;;;1.27;;
22449;SDS011;11392;57.390;-2.468;2023-02-27T07:53:56;3.78;;;1.33;;
22449;SDS011;11392;57.390;-2.468;2023-02-27T07:56:26;4.85;;;1.80;;
22449;SDS011;11392;57.390;-2.468;2023-02-27T07:58:54;6.57;;;2.17;;
22449;SDS011;11392;57.390;-2.468;2023-02-27T08:01:21;2.92;;;1.40;;
22449;SDS011;11392;57.390;-2.468;2023-02-27T08:03:48;2.10;;;1.30;;
22449;SDS011;11392;57.390;-2.468;2023-02-27T08:06:15;3.75;;;1.40;;
22449;SDS011;11392;57.390;-2.468;2023-02-27T08:08:42;2.03;;;1.17;;
22449;SDS011;11392;57.390;-2.468;2023-02-27T08:11:09;3.38;;;1.52;;
22449;SDS011;11392;57.390;-2.468;2023-02-27T08:13:36;2.38;;;1.38;;
22449;SDS011;11392;57.390;-2.468;2023-02-27T08:16:23;1.50;;;1.02;;
22449;SDS011;11392;57.390;-2.468;2023-02-27T08:18:51;3.05;;;1.52;;
22449;SDS011;11392;57.390;-2.468;2023-02-27T08:21:17;5.10;;;1.55;;
22449;SDS011;11392;57.390;-2.468;2023-02-27T08:23:44;2.95;;;1.10;;
22449;SDS011;11392;57.390;-2.468;2023-02-27T08:26:11;6.10;;;1.27;;
22449;SDS011;11392;57.390;-2.468;2023-02-27T08:28:39;5.82;;;2.08;;
22449;SDS011;11392;57.390;-2.468;2023-02-27T08:31:06;3.10;;;1.17;;
22449;SDS011;11392;57.390;-2.468;2023-02-27T08:33:34;2.35;;;1.30;;
22449;SDS011;11392;57.390;-2.468;2023-02-27T08:36:01;2.47;;;1.10;;
22449;SDS011;11392;57.390;-2.468;2023-02-27T08:38:28;7.05;;;1.80;;
22449;SDS011;11392;57.390;-2.468;2023-02-27T08:40:55;3.30;;;1.45;;
22449;SDS011;11392;57.390;-2.468;2023-02-27T08:43:22;5.93;;;1.80;;
22449;SDS011;11392;57.390;-2.468;2023-02-27T08:45:50;5.57;;;1.77;;
22449;SDS011;11392;57.390;-2.468;2023-02-27T08:48:17;3.72;;;1.73;;
22449;SDS011;11392;57.390;-2.468;2023-02-27T08:50:45;5.40;;;1.80;;
22449;SDS011;11392;57.390;-2.468;2023-02-27T08:53:12;4.68;;;1.38;;
22449;SDS011;11392;57.390;-2.468;2023-02-27T08:55:39;4.60;;;1.70;;
22449;SDS011;11392;57.390;-2.468;2023-02-27T08:58:08;3.80;;;1.70;;
22449;SDS011;11392;57.390;-2.468;2023-02-27T09:00:35;2.85;;;1.60;;
22449;SDS011;11392;57.390;-2.468;2023-02-27T09:03:02;4.78;;;1.83;;
22449;SDS011;11392;57.390;-2.468;2023-02-27T09:05:30;8.20;;;2.33;;
22449;SDS011;11392;57.390;-2.468;2023-02-27T09:08:00;3.35;;;1.25;;
22449;SDS011;11392;57.390;-2.468;2023-02-27T09:10:28;5.65;;;1.52;;
22449;SDS011;11392;57.390;-2.468;2023-02-27T09:12:57;3.88;;;1.33;;
22449;SDS011;11392;57.390;-2.468;2023-02-27T09:15:24;4.38;;;1.15;;
22449;SDS011;11392;57.390;-2.468;2023-02-27T09:17:51;3.75;;;1.38;;
22449;SDS011;11392;57.390;-2.468;2023-02-27T09:20:21;3.33;;;1.25;;
22449;SDS011;11392;57.390;-2.468;2023-02-27T09:22:48;4.35;;;1.33;;
22449;SDS011;11392;57.390;-2.468;2023-02-27T09:25:15;7.47;;;1.63;;
22449;SDS011;11392;57.390;-2.468;2023-02-27T09:27:42;2.35;;;1.10;;
22449;SDS011;11392;57.390;-2.468;2023-02-27T09:30:09;1.63;;;1.27;;
22449;SDS011;11392;57.390;-2.468;2023-02-27T09:32:37;4.03;;;1.00;;
22449;SDS011;11392;57.390;-2.468;2023-02-27T09:35:04;0.90;;;0.90;;
22449;SDS011;11392;57.390;-2.468;2023-02-27T09:37:31;2.88;;;1.30;;
22449;SDS011;11392;57.390;-2.468;2023-02-27T09:39:58;3.47;;;0.98;;
22449;SDS011;11392;57.390;-2.468;2023-02-27T09:42:27;1.95;;;1.17;;
22449;SDS011;11392;57.390;-2.468;2023-02-27T09:45:02;2.30;;;0.90;;
22449;SDS011;11392;57.390;-2.468;2023-02-27T09:47:38;2.58;;;1.30;;
22449;SDS011;11392;57.390;-2.468;2023-02-27T09:53:02;5.10;;;1.73;;
22449;SDS011;11392;57.390;-2.468;2023-02-27T09:55:32;2.40;;;1.13;;
22449;SDS011;11392;57.390;-2.468;2023-02-27T10:01:02;4.05;;;1.38;;
22449;SDS011;11392;57.390;-2.468;2023-02-27T10:03:45;2.65;;;1.17;;
22449;SDS011;11392;57.390;-2.468;2023-02-27T10:06:29;3.55;;;1.27;;
22449;SDS011;11392;57.390;-2.468;2023-02-27T10:11:50;7.25;;;1.67;;
22449;SDS011;11392;57.390;-2.468;2023-02-27T10:17:17;3.50;;;1.30;;
22449;SDS011;11392;57.390;-2.468;2023-02-27T10:19:50;2.97;;;1.20;;
22449;SDS011;11392;57.390;-2.468;2023-02-27T10:22:30;2.40;;;1.15;;
22449;SDS011;11392;57.390;-2.468;2023-02-27T10:25:08;3.65;;;1.35;;
22449;SDS011;11392;57.390;-2.468;2023-02-27T10:27:59;5.68;;;1.15;;
22449;SDS011;11392;57.390;-2.468;2023-02-27T10:30:34;2.30;;;1.10;;
22449;SDS011;11392;57.390;-2.468;2023-02-27T10:33:14;2.63;;;1.08;;
22449;SDS011;11392;57.390;-2.468;2023-02-27T10:35:49;1.33;;;1.00;;
22449;SDS011;11392;57.390;-2.468;2023-02-27T10:38:32;1.67;;;1.10;;
22449;SDS011;11392;57.390;-2.468;2023-02-27T10:41:02;0.85;;;0.80;;
22449;SDS011;11392;57.390;-2.468;2023-02-27T10:43:31;3.78;;;2.55;;
22449;SDS011;11392;57.390;-2.468;2023-02-27T10:46:00;5.28;;;2.10;;
22449;SDS011;11392;57.390;-2.468;2023-02-27T10:48:30;2.97;;;1.38;;
22449;SDS011;11392;57.390;-2.468;2023-02-27T10:51:43;2.83;;;1.23;;
22449;SDS011;11392;57.390;-2.468;2023-02-27T10:53:44;3.83;;;1.52;;
22449;SDS011;11392;57.390;-2.468;2023-02-27T10:56:14;3.88;;;1.75;;
22449;SDS011;11392;57.390;-2.468;2023-02-27T10:58:59;6.05;;;1.85;;
22449;SDS011;11392;57.390;-2.468;2023-02-27T11:01:45;6.78;;;1.98;;
22449;SDS011;11392;57.390;-2.468;2023-02-27T11:04:22;3.70;;;1.90;;
22449;SDS011;11392;57.390;-2.468;2023-02-27T11:07:10;4.25;;;1.60;;
22449;SDS011;11392;57.390;-2.468;2023-02-27T11:09:39;4.13;;;1.63;;
22449;SDS011;11392;57.390;-2.468;2023-02-27T11:12:23;3.42;;;2.22;;
22449;SDS011;11392;57.390;-2.468;2023-02-27T11:17:42;3.10;;;1.90;;
22449;SDS011;11392;57.390;-2.468;2023-02-27T11:23:05;3.65;;;1.77;;
22449;SDS011;11392;57.390;-2.468;2023-02-27T11:25:32;2.42;;;1.40;;
22449;SDS011;11392;57.390;-2.468;2023-02-27T11:28:33;2.90;;;1.23;;
22449;SDS011;11392;57.390;-2.468;2023-02-27T11:30:56;3.38;;;1.05;;
22449;SDS011;11392;57.390;-2.468;2023-02-27T11:33:31;3.53;;;1.20;;
22449;SDS011;11392;57.390;-2.468;2023-02-27T11:36:01;3.90;;;1.17;;
22449;SDS011;11392;57.390;-2.468;2023-02-27T11:38:29;7.50;;;1.58;;
22449;SDS011;11392;57.390;-2.468;2023-02-27T11:41:01;3.33;;;1.48;;
22449;SDS011;11392;57.390;-2.468;2023-02-27T11:43:37;1.67;;;1.00;;
22449;SDS011;11392;57.390;-2.468;2023-02-27T11:46:12;2.30;;;0.95;;
22449;SDS011;11392;57.390;-2.468;2023-02-27T11:49:15;2.58;;;1.02;;
22449;SDS011;11392;57.390;-2.468;2023-02-27T11:54:59;4.95;;;1.63;;
22449;SDS011;11392;57.390;-2.468;2023-02-27T11:57:29;6.03;;;2.00;;
22449;SDS011;11392;57.390;-2.468;2023-02-27T12:00:14;3.30;;;1.20;;
22449;SDS011;11392;57.390;-2.468;2023-02-27T12:05:27;4.20;;;1.50;;
22449;SDS011;11392;57.390;-2.468;2023-02-27T12:08:33;5.10;;;2.13;;
22449;SDS011;11392;57.390;-2.468;2023-02-27T12:13:41;6.32;;;1.33;;
22449;SDS011;11392;57.390;-2.468;2023-02-27T12:19:29;5.93;;;1.42;;
22449;SDS011;11392;57.390;-2.468;2023-02-27T12:22:05;2.42;;;1.30;;
22449;SDS011;11392;57.390;-2.468;2023-02-27T12:24:50;1.65;;;1.02;;
22449;SDS011;11392;57.390;-2.468;2023-02-27T12:30:26;2.63;;;0.93;;
22449;SDS011;11392;57.390;-2.468;2023-02-27T12:33:20;2.40;;;1.40;;
22449;SDS011;11392;57.390;-2.468;2023-02-27T12:35:54;4.75;;;1.52;;
22449;SDS011;11392;57.390;-2.468;2023-02-27T12:38:26;5.13;;;1.60;;
22449;SDS011;11392;57.390;-2.468;2023-02-27T12:41:07;3.33;;;1.42;;
22449;SDS011;11392;57.390;-2.468;2023-02-27T12:46:33;4.65;;;1.30;;
22449;SDS011;11392;57.390;-2.468;2023-02-27T12:49:48;3.88;;;1.90;;
22449;SDS011;11392;57.390;-2.468;2023-02-27T12:55:19;2.05;;;0.95;;
22449;SDS011;11392;57.390;-2.468;2023-02-27T13:00:49;2.03;;;0.98;;
22449;SDS011;11392;57.390;-2.468;2023-02-27T13:04:26;1.63;;;0.90;;
22449;SDS011;11392;57.390;-2.468;2023-02-27T13:06:32;1.98;;;1.00;;
22449;SDS011;11392;57.390;-2.468;2023-02-27T13:20:02;2.65;;;1.23;;
22449;SDS011;11392;57.390;-2.468;2023-02-27T13:25:28;3.30;;;1.30;;
22449;SDS011;11392;57.390;-2.468;2023-02-27T13:27:57;2.00;;;1.02;;
22449;SDS011;11392;57.390;-2.468;2023-02-27T13:30:40;1.92;;;1.10;;
22449;SDS011;11392;57.390;-2.468;2023-02-27T13:33:40;1.77;;;1.13;;
22449;SDS011;11392;57.390;-2.468;2023-02-27T13:38:54;3.22;;;1.30;;
22449;SDS011;11392;57.390;-2.468;2023-02-27T13:46:46;2.03;;;1.23;;
22449;SDS011;11392;57.390;-2.468;2023-02-27T13:49:20;4.13;;;1.10;;
22449;SDS011;11392;57.390;-2.468;2023-02-27T13:51:55;1.63;;;0.77;;
22449;SDS011;11392;57.390;-2.468;2023-02-27T13:54:26;3.28;;;1.08;;
22449;SDS011;11392;57.390;-2.468;2023-02-27T13:59:37;1.08;;;0.93;;
22449;SDS011;11392;57.390;-2.468;2023-02-27T14:07:12;1.98;;;0.82;;
22449;SDS011;11392;57.390;-2.468;2023-02-27T14:09:44;1.05;;;0.80;;
22449;SDS011;11392;57.390;-2.468;2023-02-27T14:17:44;4.90;;;0.90;;
22449;SDS011;11392;57.390;-2.468;2023-02-27T14:33:23;2.92;;;1.00;;
22449;SDS011;11392;57.390;-2.468;2023-02-27T14:36:06;1.27;;;1.02;;
22449;SDS011;11392;57.390;-2.468;2023-02-27T14:38:39;5.85;;;2.03;;
22449;SDS011;11392;57.390;-2.468;2023-02-27T14:43:42;2.15;;;0.95;;
22449;SDS011;11392;57.390;-2.468;2023-02-27T14:46:13;0.77;;;0.70;;
22449;SDS011;11392;57.390;-2.468;2023-02-27T14:48:55;4.55;;;1.15;;
22449;SDS011;11392;57.390;-2.468;2023-02-27T14:51:24;2.72;;;0.75;;
22449;SDS011;11392;57.390;-2.468;2023-02-27T14:54:10;4.03;;;1.20;;
22449;SDS011;11392;57.390;-2.468;2023-02-27T14:56:55;4.03;;;1.00;;
22449;SDS011;11392;57.390;-2.468;2023-02-27T15:01:54;3.25;;;1.15;;
22449;SDS011;11392;57.390;-2.468;2023-02-27T15:04:27;0.95;;;0.80;;
22449;SDS011;11392;57.390;-2.468;2023-02-27T15:06:56;3.03;;;1.33;;
22449;SDS011;11392;57.390;-2.468;2023-02-27T15:12:05;1.13;;;0.85;;
22449;SDS011;11392;57.390;-2.468;2023-02-27T15:14:37;2.90;;;1.00;;
22449;SDS011;11392;57.390;-2.468;2023-02-27T15:17:15;2.33;;;1.02;;
22449;SDS011;11392;57.390;-2.468;2023-02-27T15:19:51;2.13;;;0.98;;
22449;SDS011;11392;57.390;-2.468;2023-02-27T15:22:20;3.25;;;1.00;;
22449;SDS011;11392;57.390;-2.468;2023-02-27T15:25:04;1.30;;;0.85;;
22449;SDS011;11392;57.390;-2.468;2023-02-27T15:27:33;1.50;;;0.90;;
22449;SDS011;11392;57.390;-2.468;2023-02-27T15:30:04;1.80;;;0.90;;
22449;SDS011;11392;57.390;-2.468;2023-02-27T15:32:35;1.25;;;0.82;;
22449;SDS011;11392;57.390;-2.468;2023-02-27T15:35:20;2.58;;;0.75;;
22449;SDS011;11392;57.390;-2.468;2023-02-27T15:37:54;2.17;;;1.20;;
22449;SDS011;11392;57.390;-2.468;2023-02-27T15:40:26;2.58;;;1.05;;
22449;SDS011;11392;57.390;-2.468;2023-02-27T15:42:55;5.13;;;1.30;;
22449;SDS011;11392;57.390;-2.468;2023-02-27T15:45:24;2.05;;;1.02;;
22449;SDS011;11392;57.390;-2.468;2023-02-27T15:47:55;2.17;;;0.90;;
22449;SDS011;11392;57.390;-2.468;2023-02-27T15:50:24;4.43;;;1.08;;
22449;SDS011;11392;57.390;-2.468;2023-02-27T15:52:57;3.03;;;0.93;;
22449;SDS011;11392;57.390;-2.468;2023-02-27T15:55:38;3.15;;;1.70;;
22449;SDS011;11392;57.390;-2.468;2023-02-27T16:01:14;1.60;;;0.70;;
22449;SDS011;11392;57.390;-2.468;2023-02-27T16:03:48;2.65;;;0.88;;
22449;SDS011;11392;57.390;-2.468;2023-02-27T16:06:22;2.83;;;0.70;;
22449;SDS011;11392;57.390;-2.468;2023-02-27T16:08:54;3.55;;;1.30;;
22449;SDS011;11392;57.390;-2.468;2023-02-27T16:11:48;1.38;;;0.70;;
22449;SDS011;11392;57.390;-2.468;2023-02-27T16:14:35;3.38;;;1.20;;
22449;SDS011;11392;57.390;-2.468;2023-02-27T16:17:19;3.65;;;1.08;;
22449;SDS011;11392;57.390;-2.468;2023-02-27T16:19:55;1.25;;;0.88;;
22449;SDS011;11392;57.390;-2.468;2023-02-27T16:22:25;0.98;;;0.73;;
22449;SDS011;11392;57.390;-2.468;2023-02-27T16:24:52;3.72;;;1.15;;
22449;SDS011;11392;57.390;-2.468;2023-02-27T16:27:22;4.97;;;1.33;;
22449;SDS011;11392;57.390;-2.468;2023-02-27T16:29:52;5.45;;;2.70;;
22449;SDS011;11392;57.390;-2.468;2023-02-27T16:32:25;4.00;;;1.98;;
22449;SDS011;11392;57.390;-2.468;2023-02-27T16:35:04;3.38;;;1.50;;
22449;SDS011;11392;57.390;-2.468;2023-02-27T16:40:09;3.08;;;1.35;;
22449;SDS011;11392;57.390;-2.468;2023-02-27T16:42:50;3.00;;;1.50;;
22449;SDS011;11392;57.390;-2.468;2023-02-27T16:45:19;4.03;;;1.60;;
22449;SDS011;11392;57.390;-2.468;2023-02-27T16:47:48;2.08;;;1.23;;
22449;SDS011;11392;57.390;-2.468;2023-02-27T16:50:27;2.25;;;1.10;;
22449;SDS011;11392;57.390;-2.468;2023-02-27T16:52:59;4.72;;;1.50;;
22449;SDS011;11392;57.390;-2.468;2023-02-27T16:55:26;2.45;;;1.13;;
22449;SDS011;11392;57.390;-2.468;2023-02-27T16:57:54;1.45;;;1.00;;
22449;SDS011;11392;57.390;-2.468;2023-02-27T17:00:21;2.97;;;1.20;;
22449;SDS011;11392;57.390;-2.468;2023-02-27T17:02:48;2.35;;;0.90;;
22449;SDS011;11392;57.390;-2.468;2023-02-27T17:05:16;2.03;;;1.00;;
22449;SDS011;11392;57.390;-2.468;2023-02-27T17:07:44;2.35;;;1.58;;
22449;SDS011;11392;57.390;-2.468;2023-02-27T17:10:15;1.55;;;1.00;;
22449;SDS011;11392;57.390;-2.468;2023-02-27T17:12:45;2.30;;;1.00;;
22449;SDS011;11392;57.390;-2.468;2023-02-27T17:15:13;4.50;;;1.00;;
22449;SDS011;11392;57.390;-2.468;2023-02-27T17:17:40;1.08;;;0.90;;
22449;SDS011;11392;57.390;-2.468;2023-02-27T17:20:08;2.15;;;1.08;;
22449;SDS011;11392;57.390;-2.468;2023-02-27T17:22:37;2.83;;;1.10;;
22449;SDS011;11392;57.390;-2.468;2023-02-27T17:25:06;2.72;;;1.30;;
22449;SDS011;11392;57.390;-2.468;2023-02-27T17:27:35;1.77;;;1.25;;
22449;SDS011;11392;57.390;-2.468;2023-02-27T17:30:09;1.25;;;0.90;;
22449;SDS011;11392;57.390;-2.468;2023-02-27T17:32:37;3.42;;;1.25;;
22449;SDS011;11392;57.390;-2.468;2023-02-27T17:35:04;5.10;;;1.25;;
22449;SDS011;11392;57.390;-2.468;2023-02-27T17:37:32;3.47;;;1.27;;
22449;SDS011;11392;57.390;-2.468;2023-02-27T17:39:59;1.83;;;1.55;;
22449;SDS011;11392;57.390;-2.468;2023-02-27T17:42:34;2.13;;;1.13;;
22449;SDS011;11392;57.390;-2.468;2023-02-27T17:45:02;1.60;;;1.33;;
22449;SDS011;11392;57.390;-2.468;2023-02-27T17:47:32;2.58;;;1.55;;
22449;SDS011;11392;57.390;-2.468;2023-02-27T17:50:02;5.32;;;2.60;;
22449;SDS011;11392;57.390;-2.468;2023-02-27T17:52:30;2.97;;;2.10;;
22449;SDS011;11392;57.390;-2.468;2023-02-27T17:54:59;3.45;;;2.15;;
22449;SDS011;11392;57.390;-2.468;2023-02-27T17:57:27;4.05;;;2.20;;
22449;SDS011;11392;57.390;-2.468;2023-02-27T17:59:54;3.50;;;2.17;;
22449;SDS011;11392;57.390;-2.468;2023-02-27T18:02:20;4.25;;;3.22;;
22449;SDS011;11392;57.390;-2.468;2023-02-27T18:04:47;4.70;;;2.50;;